createdAt,value
2018-12-25T00:02:00.256Z,2.80
2018-12-25T00:04:33.869Z,2.90
2018-12-25T00:07:07.480Z,2.90
2018-12-25T00:09:40.979Z,2.90
2018-12-25T00:12:14.597Z,2.90
2018-12-25T00:14:48.215Z,2.90
2018-12-25T00:17:22.001Z,2.90
2018-12-25T00:19:55.600Z,2.80
2018-12-25T00:22:29.439Z,2.90
2018-12-25T00:25:03.085Z,2.80
2018-12-25T00:27:36.751Z,2.80
2018-12-25T00:30:10.304Z,2.80
2018-12-25T00:32:44.137Z,2.80
2018-12-25T00:35:17.720Z,2.80
2018-12-25T00:37:51.338Z,2.70
2018-12-25T00:40:25.017Z,2.60
2018-12-25T00:43:00.154Z,2.60
2018-12-25T00:45:33.748Z,2.60
2018-12-25T00:48:07.447Z,2.60
2018-12-25T00:50:41.190Z,2.60
2018-12-25T00:53:14.739Z,2.60
2018-12-25T00:55:48.337Z,2.70
2018-12-25T00:58:21.987Z,2.70
2018-12-25T01:00:55.603Z,2.70
2018-12-25T01:03:29.346Z,2.80
2018-12-25T01:06:02.908Z,2.80
2018-12-25T01:08:37.172Z,2.70
2018-12-25T01:11:11.761Z,2.60
2018-12-25T01:13:45.422Z,2.60
2018-12-25T01:16:19.155Z,2.50
2018-12-25T01:18:52.793Z,2.40
2018-12-25T01:21:26.445Z,2.30
2018-12-25T01:24:00.133Z,2.30
2018-12-25T01:26:33.764Z,2.20
2018-12-25T01:29:08.061Z,2.10
2018-12-25T01:31:41.686Z,2.00
2018-12-25T01:34:15.458Z,2.00
2018-12-25T01:36:49.023Z,2.00
2018-12-25T01:39:23.403Z,2.00
2018-12-25T01:41:56.987Z,2.00
2018-12-25T01:44:30.723Z,2.00
2018-12-25T01:47:04.478Z,2.00
2018-12-25T01:49:38.235Z,1.90
2018-12-25T01:52:11.985Z,1.80
2018-12-25T01:54:45.769Z,1.70
2018-12-25T01:57:19.543Z,1.70
2018-12-25T01:59:53.246Z,1.70
2018-12-25T02:02:27.119Z,1.70
2018-12-25T02:05:00.939Z,1.70
2018-12-25T02:07:34.559Z,1.70
2018-12-25T02:10:08.374Z,1.70
2018-12-25T02:12:42.016Z,1.70
2018-12-25T02:15:15.575Z,1.60
2018-12-25T02:17:49.355Z,1.60
2018-12-25T02:20:23.055Z,1.50
2018-12-25T02:22:56.813Z,1.50
2018-12-25T02:25:30.549Z,1.50
2018-12-25T02:28:04.137Z,1.50
2018-12-25T02:30:37.809Z,1.40
2018-12-25T02:33:12.141Z,1.30
2018-12-25T02:35:45.686Z,1.30
2018-12-25T02:38:19.231Z,1.30
2018-12-25T02:40:52.824Z,1.30
2018-12-25T02:43:26.623Z,1.30
2018-12-25T02:46:00.176Z,1.30
2018-12-25T02:48:34.064Z,1.40
2018-12-25T02:51:08.479Z,1.40
2018-12-25T02:53:43.855Z,1.40
2018-12-25T02:56:17.441Z,1.30
2018-12-25T02:58:51.026Z,1.30
2018-12-25T03:01:24.730Z,1.30
2018-12-25T03:03:59.076Z,1.30
2018-12-25T03:06:33.577Z,1.30
2018-12-25T03:09:07.236Z,1.30
2018-12-25T03:11:40.939Z,1.20
2018-12-25T03:14:14.748Z,1.20
2018-12-25T03:16:48.443Z,1.10
2018-12-25T03:19:22.091Z,1.10
2018-12-25T03:21:55.636Z,1.10
2018-12-25T03:24:29.233Z,1.00
2018-12-25T03:27:02.908Z,1.00
2018-12-25T03:29:37.333Z,1.00
2018-12-25T03:32:10.920Z,0.90
2018-12-25T03:34:44.429Z,1.00
2018-12-25T03:37:18.047Z,0.90
2018-12-25T03:39:51.663Z,0.90
2018-12-25T03:42:25.901Z,0.90
2018-12-25T03:44:59.484Z,0.90
2018-12-25T03:47:33.153Z,1.00
2018-12-25T03:50:10.974Z,1.00
2018-12-25T03:52:40.584Z,1.10
2018-12-25T03:55:14.174Z,1.20
2018-12-25T03:57:47.784Z,1.20
2018-12-25T04:00:21.517Z,1.20
2018-12-25T04:02:55.084Z,1.30
2018-12-25T04:05:28.687Z,1.30
2018-12-25T04:08:02.420Z,1.40
2018-12-25T04:10:36.342Z,1.40
2018-12-25T04:13:10.056Z,1.50
2018-12-25T04:15:43.714Z,1.50
2018-12-25T04:18:17.324Z,1.60
2018-12-25T04:20:51.129Z,1.70
2018-12-25T04:23:24.715Z,1.80
2018-12-25T04:25:58.310Z,1.90
2018-12-25T04:28:32.019Z,2.00
2018-12-25T04:31:05.684Z,2.00
2018-12-25T04:33:39.410Z,2.10
2018-12-25T04:36:13.197Z,2.00
2018-12-25T04:38:46.851Z,1.90
2018-12-25T04:41:20.439Z,1.80
2018-12-25T04:43:54.108Z,1.80
2018-12-25T04:46:27.745Z,1.80
2018-12-25T04:49:01.311Z,1.80
2018-12-25T04:51:35.713Z,1.60
2018-12-25T04:54:10.252Z,1.50
2018-12-25T04:56:44.012Z,1.50
2018-12-25T04:59:17.747Z,1.40
2018-12-25T05:01:51.377Z,1.40
2018-12-25T05:04:24.924Z,1.40
2018-12-25T05:06:58.507Z,1.30
2018-12-25T05:09:32.179Z,1.20
2018-12-25T05:12:05.805Z,1.20
2018-12-25T05:14:39.523Z,1.10
2018-12-25T05:17:13.271Z,1.10
2018-12-25T05:19:46.919Z,1.10
2018-12-25T05:22:20.489Z,1.10
2018-12-25T05:24:55.576Z,1.00
2018-12-25T05:27:29.366Z,1.00
2018-12-25T05:30:03.434Z,1.00
2018-12-25T05:32:37.160Z,1.10
2018-12-25T05:35:10.935Z,1.10
2018-12-25T05:37:44.563Z,1.10
2018-12-25T05:40:19.063Z,1.00
2018-12-25T05:42:52.714Z,1.00
2018-12-25T05:45:26.276Z,0.90
2018-12-25T05:48:00.699Z,0.80
2018-12-25T05:50:34.297Z,0.70
2018-12-25T05:53:07.878Z,0.70
2018-12-25T05:55:41.401Z,0.70
2018-12-25T05:58:15.092Z,0.70
2018-12-25T06:00:48.780Z,0.70
2018-12-25T06:03:22.508Z,0.70
2018-12-25T06:05:57.072Z,0.60
2018-12-25T06:08:31.586Z,0.60
2018-12-25T06:11:05.148Z,0.60
2018-12-25T06:13:38.761Z,0.60
2018-12-25T06:16:12.298Z,0.60
2018-12-25T06:18:45.879Z,0.60
2018-12-25T06:21:20.384Z,0.60
2018-12-25T06:23:54.067Z,0.50
2018-12-25T06:26:28.487Z,0.50
2018-12-25T06:29:02.353Z,0.50
2018-12-25T06:31:36.192Z,0.40
2018-12-25T06:34:10.086Z,0.40
2018-12-25T06:36:44.451Z,0.50
2018-12-25T06:39:17.953Z,0.50
2018-12-25T06:41:51.511Z,0.40
2018-12-25T06:44:25.090Z,0.40
2018-12-25T06:46:59.496Z,0.30
2018-12-25T06:49:33.148Z,0.30
2018-12-25T06:52:07.615Z,0.30
2018-12-25T06:54:41.317Z,0.20
2018-12-25T06:57:14.883Z,0.20
2018-12-25T06:59:48.542Z,0.20
2018-12-25T07:02:22.118Z,0.20
2018-12-25T07:04:55.708Z,0.20
2018-12-25T07:07:29.314Z,0.20
2018-12-25T07:10:02.925Z,0.20
2018-12-25T07:12:36.511Z,0.20
2018-12-25T07:15:10.259Z,0.30
2018-12-25T07:17:44.776Z,0.30
2018-12-25T07:20:18.485Z,0.30
2018-12-25T07:22:52.087Z,0.30
2018-12-25T07:25:26.559Z,0.30
2018-12-25T07:28:00.115Z,0.30
2018-12-25T07:30:33.865Z,0.40
2018-12-25T07:33:07.509Z,0.40
2018-12-25T07:35:41.183Z,0.40
2018-12-25T07:38:14.754Z,0.40
2018-12-25T07:40:48.300Z,0.50
2018-12-25T07:43:21.974Z,0.60
2018-12-25T07:45:55.782Z,0.60
2018-12-25T07:48:29.428Z,0.60
2018-12-25T07:51:03.126Z,0.60
2018-12-25T07:53:36.708Z,0.70
2018-12-25T07:56:10.289Z,0.70
2018-12-25T07:58:43.847Z,0.80
2018-12-25T08:01:17.389Z,0.90
2018-12-25T08:03:51.083Z,1.00
2018-12-25T08:06:24.612Z,0.90
2018-12-25T08:08:58.241Z,0.90
2018-12-25T08:11:31.804Z,0.90
2018-12-25T08:14:05.407Z,1.00
2018-12-25T08:16:39.030Z,1.00
2018-12-25T08:19:12.753Z,1.00
2018-12-25T08:21:46.405Z,1.00
2018-12-25T08:24:20.162Z,1.00
2018-12-25T08:26:54.641Z,1.00
2018-12-25T08:29:28.282Z,1.00
2018-12-25T08:32:01.951Z,1.10
2018-12-25T08:34:35.787Z,1.00
2018-12-25T08:37:09.629Z,0.80
2018-12-25T08:39:43.239Z,0.90
2018-12-25T08:42:17.024Z,1.10
2018-12-25T08:44:50.655Z,1.20
2018-12-25T08:47:24.527Z,1.20
2018-12-25T08:49:58.175Z,1.10
2018-12-25T08:52:31.980Z,1.20
2018-12-25T08:55:06.535Z,1.50
2018-12-25T08:57:40.288Z,1.50
2018-12-25T09:00:14.042Z,1.50
2018-12-25T09:02:47.742Z,1.50
2018-12-25T09:05:21.319Z,1.60
2018-12-25T09:07:55.056Z,1.80
2018-12-25T09:10:28.741Z,1.60
2018-12-25T09:13:04.865Z,1.30
2018-12-25T09:15:38.700Z,1.10
2018-12-25T09:18:12.368Z,1.10
2018-12-25T09:20:45.913Z,1.10
2018-12-25T09:23:19.496Z,1.20
2018-12-25T09:25:53.280Z,1.00
2018-12-25T09:28:26.925Z,1.10
2018-12-25T09:31:00.531Z,1.20
2018-12-25T09:33:34.244Z,1.40
2018-12-25T09:36:08.530Z,1.60
2018-12-25T09:38:42.251Z,1.90
2018-12-25T09:41:15.823Z,1.90
2018-12-25T09:43:49.419Z,1.70
2018-12-25T09:46:22.998Z,1.70
2018-12-25T09:48:56.547Z,1.60
2018-12-25T09:51:30.112Z,1.50
2018-12-25T09:54:03.750Z,1.50
2018-12-25T09:56:37.353Z,1.50
2018-12-25T09:59:10.909Z,1.50
2018-12-25T10:01:44.558Z,1.30
2018-12-25T10:04:18.145Z,1.30
2018-12-25T10:06:51.726Z,1.30
2018-12-25T10:09:25.440Z,1.40
2018-12-25T10:11:58.971Z,1.60
2018-12-25T10:14:32.645Z,1.70
2018-12-25T10:17:06.288Z,1.80
2018-12-25T10:19:39.969Z,1.60
2018-12-25T10:22:14.483Z,1.60
2018-12-25T10:24:48.355Z,1.60
2018-12-25T10:27:21.962Z,1.50
2018-12-25T10:29:55.741Z,1.40
2018-12-25T10:32:29.329Z,1.40
2018-12-25T10:35:02.989Z,1.40
2018-12-25T10:37:36.566Z,1.50
2018-12-25T10:40:10.291Z,1.70
2018-12-25T10:42:43.897Z,2.00
2018-12-25T10:45:18.443Z,2.20
2018-12-25T10:47:52.221Z,2.20
2018-12-25T10:50:26.024Z,2.30
2018-12-25T10:52:59.667Z,2.40
2018-12-25T10:55:33.340Z,2.20
2018-12-25T10:58:07.853Z,2.10
2018-12-25T11:00:41.709Z,2.10
2018-12-25T11:03:15.420Z,2.30
2018-12-25T11:05:49.818Z,2.70
2018-12-25T11:08:23.540Z,2.70
2018-12-25T11:10:57.079Z,2.90
2018-12-25T11:13:30.726Z,3.00
2018-12-25T11:16:04.621Z,2.90
2018-12-25T11:18:39.024Z,1.90
2018-12-25T11:21:12.685Z,1.80
2018-12-25T11:23:46.415Z,1.90
2018-12-25T11:26:20.110Z,2.00
2018-12-25T11:28:53.772Z,2.40
2018-12-25T11:31:27.486Z,2.70
2018-12-25T11:34:02.577Z,2.40
2018-12-25T11:36:34.897Z,2.10
2018-12-25T11:39:08.400Z,2.20
2018-12-25T11:41:42.131Z,2.20
2018-12-25T11:44:15.742Z,2.30
2018-12-25T11:46:49.473Z,2.40
2018-12-25T11:49:23.199Z,2.40
2018-12-25T11:51:56.987Z,2.60
2018-12-25T11:54:30.742Z,2.80
2018-12-25T11:57:04.290Z,3.10
2018-12-25T11:59:38.084Z,3.70
2018-12-25T12:02:17.053Z,4.40
2018-12-25T12:04:46.458Z,4.50
2018-12-25T12:07:20.138Z,4.60
2018-12-25T12:09:53.861Z,4.00
2018-12-25T12:12:27.615Z,3.50
2018-12-25T12:15:01.250Z,3.40
2018-12-25T12:17:34.903Z,3.90
2018-12-25T12:20:08.465Z,3.70
2018-12-25T12:22:42.203Z,3.60
2018-12-25T12:25:15.848Z,3.50
2018-12-25T12:27:49.453Z,3.80
2018-12-25T12:30:22.982Z,2.80
2018-12-25T12:32:56.559Z,2.40
2018-12-25T12:35:30.117Z,2.20
2018-12-25T12:38:04.032Z,2.30
2018-12-25T12:40:40.483Z,2.40
2018-12-25T12:43:12.221Z,2.30
2018-12-25T12:45:45.889Z,2.50
2018-12-25T12:48:19.671Z,2.50
2018-12-25T12:50:53.399Z,2.10
2018-12-25T12:53:27.101Z,2.00
2018-12-25T12:56:00.788Z,1.80
2018-12-25T12:58:34.318Z,1.80
2018-12-25T13:01:08.034Z,1.80
2018-12-25T13:03:41.730Z,1.80
2018-12-25T13:06:16.437Z,1.80
2018-12-25T13:08:49.948Z,1.90
2018-12-25T13:11:23.505Z,2.10
2018-12-25T13:13:58.156Z,2.10
2018-12-25T13:16:31.828Z,2.20
2018-12-25T13:19:05.383Z,2.00
2018-12-25T13:21:39.121Z,2.10
2018-12-25T13:24:12.658Z,2.20
2018-12-25T13:26:47.159Z,2.40
2018-12-25T13:29:21.023Z,2.40
2018-12-25T13:31:54.672Z,2.20
2018-12-25T13:34:28.445Z,1.90
2018-12-25T13:37:02.271Z,1.90
2018-12-25T13:39:36.847Z,2.10
2018-12-25T13:42:10.648Z,2.10
2018-12-25T13:44:44.275Z,2.30
2018-12-25T13:47:18.091Z,2.50
2018-12-25T13:49:51.781Z,2.40
2018-12-25T13:52:25.356Z,2.30
2018-12-25T13:54:59.666Z,2.20
2018-12-25T13:57:33.463Z,2.20
2018-12-25T14:00:07.184Z,2.20
2018-12-25T14:02:40.774Z,2.10
2018-12-25T14:05:14.580Z,2.10
2018-12-25T14:07:48.271Z,2.20
2018-12-25T14:10:21.989Z,2.20
2018-12-25T14:12:55.558Z,2.10
2018-12-25T14:15:29.303Z,2.00
2018-12-25T14:18:02.889Z,2.10
2018-12-25T14:20:36.728Z,2.10
2018-12-25T14:23:11.380Z,2.00
2018-12-25T14:25:44.947Z,1.90
2018-12-25T14:28:18.484Z,1.90
2018-12-25T14:30:52.050Z,1.80
2018-12-25T14:33:26.446Z,1.70
2018-12-25T14:36:00.175Z,1.70
2018-12-25T14:38:33.884Z,1.70
2018-12-25T14:41:09.364Z,1.70
2018-12-25T14:43:41.201Z,1.60
2018-12-25T14:46:15.203Z,1.50
2018-12-25T14:48:49.704Z,1.30
2018-12-25T14:51:23.312Z,1.30
2018-12-25T14:53:56.932Z,1.20
2018-12-25T14:56:30.542Z,1.10
2018-12-25T14:59:04.199Z,1.10
2018-12-25T15:01:38.082Z,1.10
2018-12-25T15:04:12.559Z,1.10
2018-12-25T15:06:46.254Z,1.10
2018-12-25T15:09:19.847Z,1.20
2018-12-25T15:11:53.679Z,1.10
2018-12-25T15:14:27.355Z,1.10
2018-12-25T15:17:00.975Z,1.10
2018-12-25T15:19:35.482Z,1.10
2018-12-25T15:22:09.559Z,1.10
2018-12-25T15:24:43.307Z,1.10
2018-12-25T15:27:17.096Z,1.10
2018-12-25T15:29:50.747Z,1.00
2018-12-25T15:32:24.300Z,0.90
2018-12-25T15:34:58.618Z,0.80
2018-12-25T15:37:32.942Z,0.70
2018-12-25T15:40:07.005Z,0.70
2018-12-25T15:42:40.831Z,0.70
2018-12-25T15:45:14.582Z,0.70
2018-12-25T15:47:48.399Z,0.70
2018-12-25T15:50:22.141Z,0.70
2018-12-25T15:52:55.694Z,0.70
2018-12-25T15:55:29.474Z,0.70
2018-12-25T15:58:03.215Z,0.70
2018-12-25T16:00:36.846Z,0.70
2018-12-25T16:03:10.675Z,0.70
2018-12-25T16:05:44.496Z,0.70
2018-12-25T16:08:18.167Z,0.70
2018-12-25T16:10:52.581Z,0.70
2018-12-25T16:13:27.052Z,0.60
2018-12-25T16:16:00.749Z,0.60
2018-12-25T16:18:34.313Z,0.60
2018-12-25T16:21:08.056Z,0.70
2018-12-25T16:23:45.476Z,0.60
2018-12-25T16:26:16.496Z,0.60
2018-12-25T16:28:50.247Z,0.60
2018-12-25T16:31:23.876Z,0.60
2018-12-25T16:33:57.676Z,0.60
2018-12-25T16:36:31.456Z,0.60
2018-12-25T16:39:05.194Z,0.60
2018-12-25T16:41:38.831Z,0.50
2018-12-25T16:44:12.491Z,0.30
2018-12-25T16:46:46.302Z,0.30
2018-12-25T16:49:20.009Z,0.30
2018-12-25T16:51:53.710Z,0.10
2018-12-25T16:54:27.432Z,0.20
2018-12-25T16:57:01.967Z,0.40
2018-12-25T16:59:35.595Z,0.40
2018-12-25T17:02:09.310Z,0.40
2018-12-25T17:04:42.876Z,0.40
2018-12-25T17:07:16.581Z,0.40
2018-12-25T17:09:50.326Z,0.40
2018-12-25T17:12:24.666Z,0.60
2018-12-25T17:14:58.330Z,0.50
2018-12-25T17:17:31.996Z,0.50
2018-12-25T17:20:05.587Z,0.50
2018-12-25T17:22:39.113Z,0.50
2018-12-25T17:25:12.799Z,0.50
2018-12-25T17:27:46.586Z,0.50
2018-12-25T17:30:20.208Z,0.40
2018-12-25T17:32:55.571Z,0.40
2018-12-25T17:35:27.520Z,0.40
2018-12-25T17:38:01.099Z,0.40
2018-12-25T17:40:34.939Z,0.40
2018-12-25T17:43:08.628Z,0.40
2018-12-25T17:45:42.215Z,0.40
2018-12-25T17:48:16.006Z,0.40
2018-12-25T17:50:49.725Z,0.30
2018-12-25T17:53:24.064Z,0.10
2018-12-25T17:55:57.785Z,0.10
2018-12-25T17:58:32.055Z,0.10
2018-12-25T18:01:06.430Z,0.10
2018-12-25T18:03:40.100Z,0.10
2018-12-25T18:06:13.765Z,0.20
2018-12-25T18:08:47.584Z,0.20
2018-12-25T18:11:21.296Z,0.20
2018-12-25T18:13:55.329Z,0.20
2018-12-25T18:16:30.124Z,0.20
2018-12-25T18:19:02.651Z,0.10
2018-12-25T18:21:36.228Z,0.10
2018-12-25T18:24:09.861Z,0.10
2018-12-25T18:26:44.395Z,0.20
2018-12-25T18:29:18.053Z,0.20
2018-12-25T18:31:51.590Z,0.20
2018-12-25T18:34:25.141Z,0.20
2018-12-25T18:36:59.579Z,0.30
2018-12-25T18:39:33.379Z,0.30
2018-12-25T18:42:06.921Z,0.40
2018-12-25T18:44:40.625Z,0.30
2018-12-25T18:47:14.206Z,0.40
2018-12-25T18:49:48.677Z,0.30
2018-12-25T18:52:22.999Z,0.30
2018-12-25T18:54:57.365Z,0.30
2018-12-25T18:57:30.911Z,0.30
2018-12-25T19:00:04.544Z,0.40
2018-12-25T19:02:38.020Z,0.50
2018-12-25T19:05:11.671Z,0.50
2018-12-25T19:07:45.418Z,0.30
2018-12-25T19:10:18.959Z,0.40
2018-12-25T19:12:52.688Z,0.40
2018-12-25T19:15:27.584Z,0.30
2018-12-25T19:18:01.291Z,0.30
2018-12-25T19:20:35.811Z,0.30
2018-12-25T19:23:09.616Z,0.30
2018-12-25T19:25:43.171Z,0.30
2018-12-25T19:28:16.790Z,0.30
2018-12-25T19:30:50.427Z,0.40
2018-12-25T19:33:24.007Z,0.40
2018-12-25T19:35:57.604Z,0.40
2018-12-25T19:38:31.374Z,0.50
2018-12-25T19:41:04.995Z,0.50
2018-12-25T19:43:38.626Z,0.50
2018-12-25T19:46:12.447Z,0.50
2018-12-25T19:48:46.956Z,0.50
2018-12-25T19:51:20.694Z,0.50
2018-12-25T19:53:55.176Z,0.60
2018-12-25T19:56:29.619Z,0.50
2018-12-25T19:59:03.324Z,0.50
2018-12-25T20:01:37.108Z,0.50
2018-12-25T20:04:10.685Z,0.50
2018-12-25T20:06:52.115Z,0.50
2018-12-25T20:09:52.483Z,0.50
2018-12-25T20:12:50.066Z,0.50
2018-12-25T20:15:29.675Z,0.50
2018-12-25T20:21:26.401Z,0.40
2018-12-25T20:24:19.487Z,0.40
2018-12-25T20:27:04.120Z,0.60
2018-12-25T20:29:58.666Z,0.60
2018-12-25T20:32:43.930Z,0.50
2018-12-25T20:35:23.183Z,0.50
2018-12-25T20:41:11.040Z,0.50
2018-12-25T20:44:11.263Z,0.50
2018-12-25T20:47:00.591Z,0.60
2018-12-25T20:49:55.045Z,0.70
2018-12-25T20:55:49.822Z,0.90
2018-12-25T20:58:31.161Z,1.00
2018-12-25T21:01:08.518Z,1.10
2018-12-25T21:07:04.907Z,0.90
2018-12-25T21:12:57.648Z,0.90
2018-12-25T21:18:46.175Z,0.90
2018-12-25T21:21:19.800Z,1.00
2018-12-25T21:24:05.678Z,1.10
2018-12-25T21:26:51.096Z,1.20
2018-12-25T21:29:24.813Z,1.20
2018-12-25T21:31:58.532Z,1.20
2018-12-25T21:34:32.129Z,1.20
2018-12-25T21:37:05.752Z,1.20
2018-12-25T21:39:39.394Z,1.30
2018-12-25T21:42:13.911Z,1.20
2018-12-25T21:44:47.744Z,1.30
2018-12-25T21:47:21.376Z,1.20
2018-12-25T21:49:55.893Z,1.30
2018-12-25T21:52:29.454Z,1.30
2018-12-25T21:55:03.179Z,1.30
2018-12-25T21:57:37.134Z,1.30
2018-12-25T22:00:10.699Z,1.30
2018-12-25T22:02:44.296Z,1.30
2018-12-25T22:05:17.888Z,1.40
2018-12-25T22:07:51.434Z,1.40
2018-12-25T22:10:25.057Z,1.50
2018-12-25T22:12:59.395Z,1.50
2018-12-25T22:15:33.164Z,1.50
2018-12-25T22:18:06.733Z,1.50
2018-12-25T22:20:40.296Z,1.50
2018-12-25T22:23:13.927Z,1.40
2018-12-25T22:25:47.501Z,1.50
2018-12-25T22:28:21.180Z,1.40
2018-12-25T22:30:54.677Z,1.40
2018-12-25T22:33:29.265Z,1.40
2018-12-25T22:36:02.855Z,1.40
2018-12-25T22:38:36.618Z,1.40
2018-12-25T22:41:10.155Z,1.40
2018-12-25T22:43:43.869Z,1.50
2018-12-25T22:46:17.867Z,1.50
2018-12-25T22:48:51.603Z,1.50
2018-12-25T22:51:25.421Z,1.60
2018-12-25T22:53:59.212Z,1.50
2018-12-25T22:56:32.983Z,1.50
2018-12-25T22:59:06.848Z,1.60
2018-12-25T23:01:40.607Z,1.50
2018-12-25T23:04:14.369Z,1.50
2018-12-25T23:06:48.078Z,1.50
2018-12-25T23:09:21.733Z,1.50
2018-12-25T23:11:55.390Z,1.60
2018-12-25T23:14:28.991Z,1.60
2018-12-25T23:17:02.751Z,1.50
2018-12-25T23:19:36.348Z,1.50
2018-12-25T23:22:10.140Z,1.50
2018-12-25T23:24:43.857Z,1.50
2018-12-25T23:27:17.367Z,1.50
2018-12-25T23:29:51.020Z,1.50
2018-12-25T23:32:25.381Z,1.50
2018-12-25T23:34:59.205Z,1.60
2018-12-25T23:37:32.769Z,1.60
2018-12-25T23:40:06.325Z,1.60
2018-12-25T23:42:39.940Z,1.60
2018-12-25T23:45:13.605Z,1.50
2018-12-25T23:47:47.207Z,1.50
2018-12-25T23:50:21.045Z,1.50
2018-12-25T23:52:54.818Z,1.60
2018-12-25T23:55:28.671Z,1.60
2018-12-25T23:58:03.113Z,1.60
